Time;durP1;ratioP1;P1;durP2;ratioP2;P2;SDS_P1;SDS_P2;PMS_P1;PMS_P2;Temp;Humidity;BMP_temperature;BMP_pressure;BME280_temperature;BME280_humidity;BME280_pressure;Samples;Min_cycle;Max_cycle;Signal;HPM_P1;HPM_P2
2023/02/10 00:02:25;;;;;;;48.60;25.08;;;-2.10;1.00;;;;;;7367886;19;20018;-75
2023/02/10 00:04:55;;;;;;;48.60;25.40;;;-2.10;1.00;;;;;;7385740;19;20016;-76
2023/02/10 00:07:25;;;;;;;45.05;24.17;;;-2.10;1.00;;;;;;7364635;19;20649;-76
2023/02/10 00:09:55;;;;;;;51.13;26.10;;;-2.10;1.00;;;;;;7362362;19;20102;-76
2023/02/10 00:12:25;;;;;;;51.22;25.02;;;-2.20;1.00;;;;;;7363056;19;20035;-75
2023/02/10 00:14:55;;;;;;;50.55;25.55;;;-2.10;1.00;;;;;;7365256;19;20173;-76
2023/02/10 00:17:27;;;;;;;47.40;24.13;;;-2.20;1.00;;;;;;7362062;19;20018;-76
2023/02/10 00:19:57;;;;;;;46.80;24.55;;;-2.20;1.00;;;;;;7384618;19;20106;-76
2023/02/10 00:22:27;;;;;;;48.15;25.73;;;-2.20;1.00;;;;;;7364253;19;20376;-75
2023/02/10 00:24:56;;;;;;;54.90;25.70;;;-2.30;1.00;;;;;;7364238;19;20013;-75
2023/02/10 00:27:26;;;;;;;46.50;23.60;;;-2.30;1.00;;;;;;7362461;19;20024;-75
2023/02/10 00:29:56;;;;;;;46.20;24.98;;;-2.20;1.00;;;;;;7362513;19;20015;-76
2023/02/10 00:32:29;;;;;;;49.05;24.73;;;-2.20;1.00;;;;;;7363663;19;20018;-76
2023/02/10 00:34:59;;;;;;;48.42;25.25;;;-2.20;1.00;;;;;;7384622;19;20488;-76
2023/02/10 00:37:28;;;;;;;46.17;25.85;;;-2.30;1.00;;;;;;7363327;19;20010;-76
2023/02/10 00:39:58;;;;;;;53.80;25.70;;;-2.30;1.00;;;;;;7361500;19;20086;-76
2023/02/10 00:42:29;;;;;;;49.88;25.55;;;-2.30;1.00;;;;;;7362143;19;20474;-77
2023/02/10 00:44:59;;;;;;;49.10;25.75;;;-2.30;1.00;;;;;;7363892;19;20067;-76
2023/02/10 00:47:31;;;;;;;62.67;27.95;;;-2.30;1.00;;;;;;7362484;19;20014;-75
2023/02/10 00:50:01;;;;;;;55.08;25.98;;;-2.30;1.00;;;;;;7383186;19;20015;-76
2023/02/10 00:52:31;;;;;;;51.15;25.90;;;-2.30;1.00;;;;;;7363335;19;20043;-75
2023/02/10 00:55:01;;;;;;;55.58;26.67;;;-2.20;1.00;;;;;;7363862;19;20010;-75
2023/02/10 00:57:30;;;;;;;53.70;27.52;;;-2.40;1.00;;;;;;7361177;19;20011;-75
2023/02/10 01:00:00;;;;;;;50.38;25.88;;;-2.30;1.00;;;;;;7361064;19;20374;-76
2023/02/10 01:02:33;;;;;;;54.80;26.70;;;-2.30;1.00;;;;;;7362635;19;20018;-76
2023/02/10 01:05:03;;;;;;;50.45;27.13;;;-2.40;1.00;;;;;;7390799;19;20099;-76
2023/02/10 01:07:32;;;;;;;55.03;28.60;;;-2.40;1.00;;;;;;7390536;19;20006;-76
2023/02/10 01:10:02;;;;;;;62.25;30.15;;;-2.50;1.00;;;;;;7389535;19;20478;-77
2023/02/10 01:12:32;;;;;;;56.85;28.83;;;-2.50;1.00;;;;;;7391730;19;20007;-76
2023/02/10 01:15:02;;;;;;;52.47;27.63;;;-2.50;1.00;;;;;;7391059;19;20022;-77
2023/02/10 01:17:35;;;;;;;56.45;27.70;;;-2.50;1.10;;;;;;7387698;19;20042;-76
2023/02/10 01:20:05;;;;;;;56.90;28.80;;;-2.50;1.00;;;;;;7389541;19;20010;-76
2023/02/10 01:22:36;;;;;;;53.10;27.38;;;-2.50;1.10;;;;;;7391633;19;20006;-76
2023/02/10 01:25:06;;;;;;;54.85;28.63;;;-2.60;1.40;;;;;;7392353;19;20014;-76
2023/02/10 01:27:36;;;;;;;54.25;27.40;;;-2.60;1.60;;;;;;7389009;19;20010;-77
2023/02/10 01:30:07;;;;;;;60.33;30.63;;;-2.50;1.60;;;;;;7388687;19;20350;-76
2023/02/10 01:32:40;;;;;;;58.35;28.75;;;-2.60;1.50;;;;;;7390809;19;20324;-76
2023/02/10 01:35:10;;;;;;;61.30;30.42;;;-2.60;1.50;;;;;;7387583;19;20097;-76
2023/02/10 01:37:40;;;;;;;57.47;29.08;;;-2.60;1.50;;;;;;7389525;19;20024;-77
2023/02/10 01:40:12;;;;;;;57.63;30.17;;;-2.70;1.90;;;;;;7322018;19;20368;-77
2023/02/10 01:42:42;;;;;;;59.75;30.05;;;-2.60;2.20;;;;;;7387012;19;20014;-76
2023/02/10 01:45:20;;;;;;;59.22;29.95;;;-2.60;2.40;;;;;;7363398;19;20447;-76
2023/02/10 01:47:54;;;;;;;61.80;31.60;;;-2.60;2.20;;;;;;7361233;19;20011;-77
2023/02/10 01:50:28;;;;;;;66.35;32.70;;;-2.60;2.10;;;;;;7386511;19;20062;-73
2023/02/10 01:53:00;;;;;;;65.38;30.58;;;-2.60;2.10;;;;;;7419483;19;20022;-76
2023/02/10 01:55:34;;;;;;;58.88;30.35;;;-2.60;2.00;;;;;;7388349;19;20750;-76
2023/02/10 01:58:05;;;;;;;;;;;-2.60;2.50;;;;;;7362708;19;20011;-76
2023/02/10 02:00:35;;;;;;;66.60;32.20;;;-2.70;2.30;;;;;;7359154;19;19922;-76
2023/02/10 02:03:08;;;;;;;64.65;34.42;;;-2.70;2.60;;;;;;7359275;19;20034;-76
2023/02/10 02:05:40;;;;;;;63.15;30.38;;;-2.70;2.60;;;;;;7361777;19;20312;-75
2023/02/10 02:08:13;;;;;;;59.10;31.17;;;-2.70;2.90;;;;;;7384201;19;20077;-76
2023/02/10 02:10:58;;;;;;;54.43;30.40;;;-2.80;2.70;;;;;;7365325;19;20627;-75
2023/02/10 02:13:47;;;;;;;64.20;32.75;;;-2.90;2.90;;;;;;7368479;19;20244;-76
2023/02/10 02:16:29;;;;;;;61.53;30.75;;;-3.00;3.30;;;;;;7368057;19;20011;-76
2023/02/10 02:19:08;;;;;;;61.33;31.30;;;-3.10;3.50;;;;;;7367853;19;20027;-76
2023/02/10 02:22:11;;;;;;;59.25;31.20;;;-3.10;3.90;;;;;;7367291;19;20007;-76
2023/02/10 02:25:04;;;;;;;61.05;32.80;;;-3.30;3.70;;;;;;7365766;19;20015;-76
2023/02/10 02:28:08;;;;;;;62.72;32.92;;;-3.30;4.90;;;;;;7368330;19;20040;-76
2023/02/10 02:30:57;;;;;;;63.60;32.77;;;-3.40;5.40;;;;;;7366321;19;20014;-76
2023/02/10 02:33:34;;;;;;;60.08;32.70;;;-3.30;7.30;;;;;;7368611;19;20067;-76
2023/02/10 02:36:11;;;;;;;65.85;34.08;;;-3.30;7.30;;;;;;7368521;19;20119;-77
2023/02/10 02:38:41;;;;;;;62.25;33.35;;;-3.30;6.90;;;;;;7365769;19;24961;-77
2023/02/10 02:41:12;;;;;;;68.65;33.58;;;-3.40;6.90;;;;;;7393998;19;20020;-76
2023/02/10 02:43:43;;;;;;;67.68;33.65;;;-3.30;7.30;;;;;;7396241;19;20094;-76
2023/02/10 02:46:17;;;;;;;64.13;33.88;;;-3.30;7.60;;;;;;7397462;19;20014;-76
2023/02/10 02:49:02;;;;;;;68.90;35.22;;;-3.20;8.00;;;;;;7393666;19;20014;-76
2023/02/10 02:51:42;;;;;;;69.57;34.00;;;-3.10;7.50;;;;;;7396768;19;20011;-76
2023/02/10 02:54:23;;;;;;;63.00;33.33;;;-3.10;8.20;;;;;;7396418;19;20057;-76
2023/02/10 02:57:04;;;;;;;64.90;34.58;;;-3.10;7.70;;;;;;7397194;19;20014;-76
2023/02/10 02:59:38;;;;;;;70.38;34.83;;;-3.00;7.90;;;;;;7394397;19;20502;-76
2023/02/10 03:02:11;;;;;;;66.40;35.08;;;-3.10;7.40;;;;;;7395246;19;20716;-76
2023/02/10 03:04:45;;;;;;;72.32;35.92;;;-3.10;7.40;;;;;;7392775;19;20037;-76
2023/02/10 03:07:15;;;;;;;71.55;35.13;;;-3.00;7.60;;;;;;7392494;19;20224;-76
2023/02/10 03:09:45;;;;;;;68.93;36.20;;;-3.00;7.50;;;;;;7393619;19;20543;-77
2023/02/10 03:12:15;;;;;;;65.47;33.40;;;-3.00;7.50;;;;;;7395662;19;20014;-76
2023/02/10 03:14:45;;;;;;;71.75;33.95;;;-3.00;7.50;;;;;;7395979;19;20078;-75
2023/02/10 03:17:14;;;;;;;64.57;34.65;;;-2.90;7.50;;;;;;7394455;19;20038;-76
2023/02/10 03:19:47;;;;;;;64.68;34.28;;;-2.90;6.40;;;;;;7392987;19;20019;-76
2023/02/10 03:22:17;;;;;;;65.97;34.88;;;-2.90;6.10;;;;;;7394784;19;20002;-77
2023/02/10 03:24:46;;;;;;;66.88;33.95;;;-2.90;6.00;;;;;;7392427;19;20030;-77
2023/02/10 03:27:16;;;;;;;65.82;32.90;;;-3.00;5.60;;;;;;7390999;19;20010;-78
2023/02/10 03:29:48;;;;;;;60.05;32.88;;;-3.00;5.80;;;;;;7393282;19;20019;-77
2023/02/10 03:32:18;;;;;;;59.47;32.42;;;-3.00;5.60;;;;;;7394600;19;20081;-77
2023/02/10 03:34:50;;;;;;;64.13;34.20;;;-3.10;6.10;;;;;;7391389;19;20015;-77
2023/02/10 03:37:20;;;;;;;65.03;33.58;;;-3.10;6.30;;;;;;7393317;19;20010;-77
2023/02/10 03:39:50;;;;;;;70.68;36.53;;;-3.10;6.60;;;;;;7391895;19;20022;-79
2023/02/10 03:42:20;;;;;;;69.32;34.70;;;-3.10;6.40;;;;;;7392106;19;20018;-77
2023/02/10 03:44:50;;;;;;;63.67;32.63;;;-3.20;6.90;;;;;;7393608;19;20402;-77
2023/02/10 03:47:19;;;;;;;67.75;33.20;;;-3.10;7.20;;;;;;7395065;19;20097;-78
2023/02/10 03:49:52;;;;;;;66.15;33.10;;;-3.10;7.40;;;;;;7391547;19;20383;-78
2023/02/10 03:52:21;;;;;;;63.50;32.03;;;-3.00;7.10;;;;;;7392839;19;20018;-78
2023/02/10 03:54:51;;;;;;;63.95;33.92;;;-3.00;7.30;;;;;;7338443;19;20493;-78
2023/02/10 03:57:21;;;;;;;66.75;32.78;;;-3.00;7.20;;;;;;7365014;19;20138;-78
2023/02/10 03:59:51;;;;;;;71.28;34.15;;;-3.10;6.70;;;;;;7364316;19;20025;-78
2023/02/10 04:02:21;;;;;;;64.60;33.60;;;-3.10;6.70;;;;;;7363728;19;20003;-78
2023/02/10 04:04:53;;;;;;;66.13;33.65;;;-3.10;6.80;;;;;;7366288;19;20594;-78
2023/02/10 04:07:23;;;;;;;60.60;33.65;;;-3.00;7.20;;;;;;7388197;19;20030;-78
2023/02/10 04:09:53;;;;;;;62.08;30.58;;;-3.10;6.50;;;;;;7362218;19;20015;-77
2023/02/10 04:12:23;;;;;;;69.68;33.83;;;-3.10;6.60;;;;;;7363052;19;20031;-78
2023/02/10 04:14:52;;;;;;;67.97;33.78;;;-3.10;6.60;;;;;;7365865;19;20550;-77
2023/02/10 04:17:22;;;;;;;58.90;30.52;;;-3.10;6.60;;;;;;7362453;19;20388;-77
2023/02/10 04:19:54;;;;;;;61.38;31.83;;;-3.10;6.50;;;;;;7362562;19;20022;-77
2023/02/10 04:22:24;;;;;;;60.35;32.83;;;-3.20;6.60;;;;;;7385815;19;20457;-77
2023/02/10 04:24:54;;;;;;;62.83;33.78;;;-3.20;6.70;;;;;;7365061;19;20067;-77
2023/02/10 04:27:24;;;;;;;63.50;31.27;;;-3.20;6.90;;;;;;7363038;19;20367;-78
2023/02/10 04:29:54;;;;;;;64.75;32.78;;;-3.20;6.60;;;;;;7363103;19;20010;-78
2023/02/10 04:32:24;;;;;;;70.05;33.47;;;-3.20;7.00;;;;;;7362585;19;20014;-78
2023/02/10 04:34:56;;;;;;;66.70;33.47;;;-3.10;7.00;;;;;;7365216;19;20359;-76
2023/02/10 04:37:26;;;;;;;62.25;32.00;;;-3.20;7.00;;;;;;7385565;19;20022;-77
2023/02/10 04:39:56;;;;;;;62.00;32.92;;;-3.20;6.90;;;;;;7362406;19;20018;-78
2023/02/10 04:42:29;;;;;;;68.90;34.08;;;-3.10;7.00;;;;;;7363276;19;20021;-78
2023/02/10 04:45:00;;;;;;;69.78;32.50;;;-3.20;6.60;;;;;;7362163;19;20026;-77
2023/02/10 04:47:30;;;;;;;59.10;32.78;;;-3.10;7.00;;;;;;7363765;19;20092;-78
2023/02/10 04:50:04;;;;;;;68.25;33.88;;;-3.20;6.60;;;;;;7362918;19;20033;-77
2023/02/10 04:52:33;;;;;;;69.78;34.08;;;-3.20;6.40;;;;;;7384147;19;20018;-78
2023/02/10 04:55:03;;;;;;;60.95;33.03;;;-3.20;6.60;;;;;;7366674;19;20541;-78
2023/02/10 04:57:33;;;;;;;65.63;33.70;;;-3.20;6.60;;;;;;7390099;19;20010;-77
2023/02/10 05:00:03;;;;;;;65.95;33.08;;;-3.20;7.20;;;;;;7390313;19;20014;-78
2023/02/10 05:02:33;;;;;;;61.95;32.92;;;-3.20;7.10;;;;;;7388825;19;20074;-76
2023/02/10 05:05:05;;;;;;;66.32;32.47;;;-3.20;6.50;;;;;;7390030;19;20471;-77
2023/02/10 05:07:35;;;;;;;65.93;33.85;;;-3.20;6.50;;;;;;7391209;19;20013;-77
2023/02/10 05:10:05;;;;;;;64.00;32.67;;;-3.30;6.60;;;;;;7390249;19;20019;-77
2023/02/10 05:12:35;;;;;;;65.25;32.28;;;-3.30;6.50;;;;;;7390615;19;20364;-78
2023/02/10 05:15:07;;;;;;;63.05;31.85;;;-3.30;7.30;;;;;;7387321;19;20018;-78
2023/02/10 05:17:37;;;;;;;59.05;33.63;;;-3.30;7.30;;;;;;7386769;19;20474;-76
2023/02/10 05:20:11;;;;;;;63.10;31.50;;;-3.30;7.30;;;;;;7390277;19;20010;-78
2023/02/10 05:22:42;;;;;;;60.80;32.28;;;-3.30;7.40;;;;;;7390137;19;20478;-79
2023/02/10 05:25:12;;;;;;;67.05;34.03;;;-3.40;7.20;;;;;;7389378;19;20359;-78
2023/02/10 05:27:42;;;;;;;60.28;31.58;;;-3.30;7.40;;;;;;7391291;19;20372;-78
2023/02/10 05:30:14;;;;;;;62.13;33.90;;;-3.30;7.30;;;;;;7390464;19;20336;-78
2023/02/10 05:32:44;;;;;;;62.60;32.50;;;-3.40;7.20;;;;;;7391055;19;20013;-77
2023/02/10 05:35:16;;;;;;;62.50;33.25;;;-3.40;7.80;;;;;;7390722;19;20011;-78
2023/02/10 05:37:46;;;;;;;65.90;34.17;;;-3.40;7.90;;;;;;7390289;19;20413;-78
2023/02/10 05:40:16;;;;;;;62.72;32.75;;;-3.40;8.30;;;;;;7388883;19;20010;-78
2023/02/10 05:42:46;;;;;;;58.25;31.60;;;-3.40;8.30;;;;;;7392353;19;20035;-77
2023/02/10 05:45:15;;;;;;;64.47;34.42;;;-3.50;8.30;;;;;;7398644;19;20021;-78
2023/02/10 05:47:45;;;;;;;71.75;33.45;;;-3.50;8.60;;;;;;7394587;19;20519;-78
2023/02/10 05:50:17;;;;;;;72.57;35.17;;;-3.50;8.10;;;;;;7395276;19;20014;-77
2023/02/10 05:52:48;;;;;;;61.72;33.47;;;-3.50;8.30;;;;;;7395178;19;20518;-78
2023/02/10 05:55:18;;;;;;;58.58;31.88;;;-3.50;8.60;;;;;;7397812;19;20013;-77
2023/02/10 05:57:47;;;;;;;60.72;33.38;;;-3.50;8.70;;;;;;7396985;19;21100;-77
2023/02/10 06:00:18;;;;;;;60.78;31.55;;;-3.60;8.80;;;;;;7394215;19;20011;-78
2023/02/10 06:02:48;;;;;;;66.97;34.30;;;-3.60;9.00;;;;;;7396203;19;20116;-78
2023/02/10 06:05:21;;;;;;;69.75;34.95;;;-3.60;9.30;;;;;;7398686;19;20018;-77
2023/02/10 06:07:51;;;;;;;67.45;34.50;;;-3.60;9.70;;;;;;7392471;19;20032;-77
2023/02/10 06:10:21;;;;;;;66.30;35.38;;;-3.60;9.60;;;;;;7393604;19;20373;-77
2023/02/10 06:12:50;;;;;;;67.82;35.67;;;-3.60;9.80;;;;;;7393900;19;20014;-78
2023/02/10 06:15:20;;;;;;;66.15;34.67;;;-3.60;9.80;;;;;;7395941;19;20043;-78
2023/02/10 06:17:50;;;;;;;66.35;34.75;;;-3.70;9.80;;;;;;7394033;19;20024;-78
2023/02/10 06:20:23;;;;;;;64.88;35.53;;;-3.70;10.50;;;;;;7393701;19;20078;-78
2023/02/10 06:22:55;;;;;;;75.72;35.28;;;-3.70;9.80;;;;;;7393994;19;20024;-79
2023/02/10 06:25:25;;;;;;;71.47;35.03;;;-3.80;10.10;;;;;;7392647;19;20035;-78
2023/02/10 06:27:55;;;;;;;69.82;33.40;;;-3.80;10.50;;;;;;7393013;19;20343;-79
2023/02/10 06:30:25;;;;;;;60.42;33.90;;;-3.70;10.60;;;;;;7391186;19;20365;-78
2023/02/10 06:32:55;;;;;;;64.55;34.38;;;-3.70;10.60;;;;;;7393594;19;20029;-79
2023/02/10 06:35:27;;;;;;;67.78;34.80;;;-3.70;11.30;;;;;;7392944;19;20015;-78
2023/02/10 06:37:57;;;;;;;67.38;34.30;;;-3.70;10.60;;;;;;7394034;19;20011;-78
2023/02/10 06:40:27;;;;;;;65.88;33.80;;;-3.70;10.70;;;;;;7392759;19;20017;-79
2023/02/10 06:42:57;;;;;;;70.45;35.63;;;-3.60;11.00;;;;;;7395190;19;20014;-79
2023/02/10 06:45:27;;;;;;;68.32;34.42;;;-3.60;10.70;;;;;;7392273;19;20052;-78
2023/02/10 06:47:57;;;;;;;67.47;34.95;;;-3.60;10.60;;;;;;7391448;19;20006;-78
2023/02/10 06:50:29;;;;;;;65.13;34.47;;;-3.60;10.60;;;;;;7392026;19;20014;-78
2023/02/10 06:52:59;;;;;;;67.53;35.35;;;-3.60;10.60;;;;;;7392646;19;20014;-79
2023/02/10 06:55:29;;;;;;;67.00;35.92;;;-3.50;10.50;;;;;;7392707;19;20014;-79
2023/02/10 06:58:01;;;;;;;69.80;34.47;;;-3.50;10.10;;;;;;7391099;19;20014;-79
2023/02/10 07:00:31;;;;;;;66.43;35.20;;;-3.50;9.90;;;;;;7349165;19;20356;-79
2023/02/10 07:03:01;;;;;;;69.47;36.20;;;-3.40;10.00;;;;;;7362643;19;20018;-79
2023/02/10 07:05:35;;;;;;;65.78;34.53;;;-3.40;9.10;;;;;;7364566;19;20097;-78
2023/02/10 07:08:06;;;;;;;66.38;35.40;;;-3.30;8.60;;;;;;7365658;19;20517;-79
2023/02/10 07:10:37;;;;;;;65.65;35.00;;;-3.40;7.90;;;;;;7362840;19;20030;-79
2023/02/10 07:13:07;;;;;;;63.47;34.38;;;-3.30;7.80;;;;;;7386239;19;20019;-79
2023/02/10 07:15:37;;;;;;;63.70;32.80;;;-3.30;7.80;;;;;;7365379;19;20011;-80
2023/02/10 07:18:07;;;;;;;69.03;34.25;;;-3.20;7.40;;;;;;7363244;19;20470;-80
2023/02/10 07:20:39;;;;;;;62.35;32.90;;;-3.20;7.30;;;;;;7363040;19;20017;-79
2023/02/10 07:23:09;;;;;;;60.38;33.03;;;-3.20;7.20;;;;;;7365066;19;20481;-80
2023/02/10 07:25:39;;;;;;;62.15;31.73;;;-3.10;7.20;;;;;;7365767;19;20471;-80
2023/02/10 07:28:09;;;;;;;67.43;32.25;;;-3.00;7.60;;;;;;7384938;19;20014;-80
2023/02/10 07:30:39;;;;;;;58.97;31.55;;;-2.90;6.30;;;;;;7363057;19;20443;-80
2023/02/10 07:33:09;;;;;;;61.70;30.60;;;-2.80;6.00;;;;;;7364890;19;20033;-78
2023/02/10 07:35:41;;;;;;;62.08;32.05;;;-2.70;5.50;;;;;;7363438;19;20039;-79
2023/02/10 07:38:11;;;;;;;65.25;33.63;;;-2.70;4.70;;;;;;7362716;19;20014;-80
2023/02/10 07:40:41;;;;;;;63.17;31.13;;;-2.60;4.30;;;;;;7365102;19;20015;-79
2023/02/10 07:43:11;;;;;;;58.85;30.35;;;-2.60;3.80;;;;;;7386656;19;20006;-78
2023/02/10 07:45:41;;;;;;;60.17;31.70;;;-2.40;3.70;;;;;;7365046;19;20021;-79
2023/02/10 07:48:11;;;;;;;64.72;31.88;;;-2.30;2.30;;;;;;7363435;19;20014;-79
2023/02/10 07:50:43;;;;;;;63.00;30.13;;;-2.30;1.20;;;;;;7363639;19;20038;-79
2023/02/10 07:53:13;;;;;;;57.85;30.00;;;-2.20;1.00;;;;;;7363302;19;20007;-79
2023/02/10 07:55:43;;;;;;;61.30;30.10;;;-2.20;1.00;;;;;;7363910;19;20014;-78
2023/02/10 07:58:12;;;;;;;53.05;28.08;;;-2.20;1.00;;;;;;7386342;19;20025;-80
2023/02/10 08:00:43;;;;;;;56.28;28.80;;;-2.20;1.00;;;;;;7367611;19;20026;-80
2023/02/10 08:03:14;;;;;;;56.55;27.15;;;-2.10;1.00;;;;;;7393026;19;20010;-79
2023/02/10 08:05:47;;;;;;;58.35;29.52;;;-2.20;1.00;;;;;;7390279;19;20164;-79
2023/02/10 08:08:18;;;;;;;49.43;28.90;;;-2.00;1.00;;;;;;7393171;19;20014;-79
2023/02/10 08:10:48;;;;;;;51.20;27.38;;;-2.10;1.00;;;;;;7390943;19;20272;-81
2023/02/10 08:13:18;;;;;;;53.28;28.95;;;-1.90;1.00;;;;;;7391789;19;20010;-80
2023/02/10 08:15:48;;;;;;;55.72;27.80;;;-1.80;1.00;;;;;;7390550;19;20014;-79
2023/02/10 08:18:19;;;;;;;56.17;29.42;;;-1.80;1.00;;;;;;7391210;19;20014;-77
2023/02/10 08:20:51;;;;;;;55.53;29.10;;;-1.70;1.00;;;;;;7390650;19;20027;-80
2023/02/10 08:23:21;;;;;;;52.55;27.65;;;-1.70;1.00;;;;;;7392238;19;20002;-79
2023/02/10 08:25:52;;;;;;;56.58;29.33;;;-1.70;1.00;;;;;;7392770;19;20637;-79
2023/02/10 08:28:22;;;;;;;56.63;28.90;;;-1.50;1.00;;;;;;7388056;19;20011;-80
2023/02/10 08:30:52;;;;;;;62.08;33.80;;;-1.50;1.00;;;;;;7388558;19;20022;-79
2023/02/10 08:33:22;;;;;;;52.17;28.50;;;-1.30;1.00;;;;;;7389873;19;20049;-80
2023/02/10 08:35:55;;;;;;;54.28;27.27;;;-1.40;1.00;;;;;;7391053;19;20018;-80
2023/02/10 08:38:24;;;;;;;51.20;27.55;;;-1.30;1.00;;;;;;7391278;19;20029;-81
2023/02/10 08:40:59;;;;;;;52.13;27.02;;;-1.20;1.00;;;;;;7389197;19;20015;-79
2023/02/10 08:43:29;;;;;;;49.88;26.13;;;-1.10;1.00;;;;;;7390073;19;20017;-79
2023/02/10 08:45:59;;;;;;;48.33;26.73;;;-1.10;1.00;;;;;;7389673;19;20011;-79
2023/02/10 08:48:30;;;;;;;52.92;27.52;;;-1.00;1.00;;;;;;7390432;19;20013;-81
2023/02/10 08:51:07;;;;;;;51.03;25.08;;;-1.00;1.00;;;;;;7389478;19;20021;-80
2023/02/10 08:53:37;;;;;;;50.35;27.33;;;-0.90;1.00;;;;;;7388867;19;20015;-79
2023/02/10 08:56:10;;;;;;;57.17;26.92;;;-0.80;1.00;;;;;;7390884;19;20479;-79
2023/02/10 08:58:40;;;;;;;61.40;27.40;;;-0.70;1.00;;;;;;7389320;19;20022;-80
2023/02/10 09:01:13;;;;;;;52.47;25.85;;;-0.70;1.00;;;;;;7389797;19;20058;-80
2023/02/10 09:03:44;;;;;;;57.63;29.23;;;-0.60;1.00;;;;;;7394911;19;20014;-81
2023/02/10 09:06:22;;;;;;;58.95;26.10;;;-0.50;1.00;;;;;;7407643;19;20019;-80
2023/02/10 09:08:54;;;;;;;50.90;26.42;;;-0.40;1.00;;;;;;7323968;19;20021;-80
2023/02/10 09:11:25;;;;;;;52.50;25.20;;;-0.30;1.00;;;;;;7401808;19;20098;-80
2023/02/10 09:13:56;;;;;;;55.05;26.42;;;-0.20;1.00;;;;;;7367989;19;20468;-80
2023/02/10 09:16:26;;;;;;;50.13;26.25;;;-0.10;1.00;;;;;;7381540;19;20011;-80
2023/02/10 09:18:56;;;;;;;54.30;25.80;;;0.00;1.00;;;;;;7356353;19;20375;-80
2023/02/10 09:21:29;;;;;;;52.03;25.02;;;0.10;1.00;;;;;;7359456;19;20018;-80
2023/02/10 09:24:15;;;;;;;50.78;24.92;;;0.20;1.00;;;;;;7359133;19;20011;-81
2023/02/10 09:26:45;;;;;;;45.35;25.33;;;0.20;1.00;;;;;;7357763;19;20057;-81
2023/02/10 09:29:14;;;;;;;48.28;23.83;;;0.40;1.00;;;;;;7359317;19;20015;-81
2023/02/10 09:31:44;;;;;;;43.47;23.90;;;0.50;1.00;;;;;;7358285;19;20014;-82
2023/02/10 09:34:14;;;;;;;45.03;24.30;;;0.60;1.00;;;;;;7378078;19;20043;-81
2023/02/10 09:36:46;;;;;;;48.03;25.13;;;0.70;1.00;;;;;;7358073;19;20013;-79
2023/02/10 09:39:16;;;;;;;46.55;24.70;;;0.70;1.00;;;;;;7358298;19;20006;-81
2023/02/10 09:41:55;;;;;;;40.35;23.63;;;0.90;1.00;;;;;;7359135;19;20486;-83
2023/02/10 09:44:28;;;;;;;47.97;24.02;;;1.00;1.00;;;;;;7359367;19;20360;-82
2023/02/10 09:47:26;;;;;;;43.08;23.42;;;1.10;1.00;;;;;;7358996;19;20320;-82
2023/02/10 09:50:17;;;;;;;42.72;23.80;;;1.10;1.00;;;;;;7357452;19;20022;-83
2023/02/10 09:53:02;;;;;;;46.00;26.00;;;1.30;1.00;;;;;;7359658;19;20018;-84
2023/02/10 09:55:33;;;;;;;;;;;1.50;1.00;;;;;;7380662;19;20018;-83
2023/02/10 09:58:06;;;;;;;44.03;23.85;;;1.50;1.00;;;;;;7358355;19;20256;-82
2023/02/10 10:00:39;;;;;;;44.42;23.88;;;1.60;1.00;;;;;;7357280;19;20014;-83
2023/02/10 10:03:15;;;;;;;46.83;23.35;;;1.70;1.00;;;;;;7359391;19;20011;-83
2023/02/10 10:05:54;;;;;;;40.67;23.23;;;1.80;1.00;;;;;;7359036;19;20318;-83
2023/02/10 10:08:32;;;;;;;41.00;22.40;;;2.00;1.00;;;;;;7357329;19;20010;-84
2023/02/10 10:11:06;;;;;;;39.85;22.55;;;2.10;1.00;;;;;;7361693;19;20078;-83
2023/02/10 10:13:37;;;;;;;45.97;23.08;;;2.00;1.00;;;;;;7360196;19;20014;-82
2023/02/10 10:16:24;;;;;;;41.40;23.38;;;2.20;1.00;;;;;;7380250;19;20015;-85
2023/02/10 10:19:06;;;;;;;35.33;21.42;;;2.10;1.00;;;;;;7356541;19;20015;-83
2023/02/10 10:21:43;;;;;;;44.15;23.05;;;2.00;1.00;;;;;;7357683;19;20022;-84
2023/02/10 10:24:41;;;;;;;40.20;22.48;;;2.00;1.00;;;;;;7358388;19;20054;-83
2023/02/10 10:27:23;;;;;;;47.53;22.88;;;2.10;1.00;;;;;;7357936;19;20014;-83
2023/02/10 10:29:56;;;;;;;38.90;21.70;;;2.10;1.00;;;;;;7359780;19;20537;-83
2023/02/10 10:32:38;;;;;;;48.63;23.05;;;2.30;1.00;;;;;;7365299;19;20060;-82
2023/02/10 10:35:18;;;;;;;44.35;21.52;;;2.40;1.00;;;;;;7363283;19;20022;-81
2023/02/10 10:37:48;;;;;;;39.90;23.00;;;2.50;1.00;;;;;;7365227;19;20015;-82
2023/02/10 10:40:26;;;;;;;51.50;23.33;;;2.60;1.00;;;;;;7383622;19;20014;-82
2023/02/10 10:43:01;;;;;;;36.15;20.00;;;2.70;1.00;;;;;;7365596;19;20919;-81
2023/02/10 10:45:35;;;;;;;37.90;21.13;;;2.80;1.00;;;;;;7364281;19;20372;-82
2023/02/10 10:48:10;;;;;;;40.08;20.73;;;3.00;1.00;;;;;;7363167;19;20010;-82
2023/02/10 10:50:40;;;;;;;40.97;21.42;;;3.10;1.00;;;;;;7363425;19;20021;-80
2023/02/10 10:53:19;;;;;;;38.17;21.08;;;3.20;1.00;;;;;;7364709;19;20010;-81
2023/02/10 10:55:54;;;;;;;44.30;22.77;;;3.30;1.00;;;;;;7363075;19;20494;-80
2023/02/10 10:58:29;;;;;;;41.35;19.70;;;3.40;1.00;;;;;;7384680;19;20566;-81
2023/02/10 11:01:01;;;;;;;37.50;21.75;;;3.30;1.00;;;;;;7363737;19;20368;-80
2023/02/10 11:03:34;;;;;;;33.70;19.75;;;3.30;1.00;;;;;;7365336;19;20015;-79
2023/02/10 11:06:09;;;;;;;39.08;20.05;;;3.50;1.00;;;;;;7365004;19;20018;-80
2023/02/10 11:08:42;;;;;;;40.40;20.55;;;3.40;1.00;;;;;;7362042;19;20494;-79
2023/02/10 11:11:17;;;;;;;43.92;22.15;;;3.60;1.00;;;;;;7368315;19;20014;-79
2023/02/10 11:14:15;;;;;;;36.28;20.92;;;3.80;1.00;;;;;;7364851;19;20092;-79
2023/02/10 11:16:48;;;;;;;36.17;19.15;;;3.80;1.00;;;;;;7365940;19;20022;-78
2023/02/10 11:19:24;;;;;;;34.20;19.23;;;3.90;1.00;;;;;;7386516;19;20039;-80
2023/02/10 11:21:55;;;;;;;35.35;19.98;;;4.10;1.00;;;;;;7365655;19;20025;-78
2023/02/10 11:24:27;;;;;;;34.85;17.95;;;4.00;1.00;;;;;;7362349;19;20021;-77
2023/02/10 11:27:02;;;;;;;34.90;17.75;;;4.00;1.00;;;;;;7362584;19;20014;-79
2023/02/10 11:29:34;;;;;;;32.05;16.77;;;3.90;1.00;;;;;;7362579;19;20015;-78
2023/02/10 11:32:04;;;;;;;29.25;17.13;;;4.00;1.00;;;;;;7363192;19;20018;-78
2023/02/10 11:34:41;;;;;;;32.50;18.73;;;3.90;1.00;;;;;;7386350;19;20019;-77
2023/02/10 11:37:16;;;;;;;31.75;18.30;;;4.00;1.00;;;;;;7365740;19;20014;-77
2023/02/10 11:39:47;;;;;;;34.30;20.15;;;3.90;1.00;;;;;;7361371;19;20132;-78
2023/02/10 11:42:24;;;;;;;31.75;18.48;;;4.00;1.00;;;;;;7366173;19;20034;-77
2023/02/10 11:44:59;;;;;;;31.65;18.27;;;4.10;1.00;;;;;;7362181;19;20015;-76
2023/02/10 11:47:30;;;;;;;31.92;17.15;;;4.10;1.00;;;;;;7362652;19;20014;-77
2023/02/10 11:50:01;;;;;;;33.22;17.90;;;4.00;1.00;;;;;;7359774;19;20559;-77
2023/02/10 11:52:33;;;;;;;35.40;18.63;;;4.00;1.00;;;;;;7386238;19;20066;-77
2023/02/10 11:55:04;;;;;;;32.25;18.08;;;4.20;1.00;;;;;;7361529;19;20015;-77
2023/02/10 12:00:35;;;;;;;44.55;20.05;;;4.50;1.00;;;;;;7363395;19;20022;-75
2023/02/10 12:03:37;;;;;;;32.35;19.02;;;4.20;1.00;;;;;;7362846;19;20017;-77
2023/02/10 12:06:11;;;;;;;36.90;18.80;;;4.30;1.00;;;;;;7360490;19;20014;-77
2023/02/10 12:08:51;;;;;;;38.25;19.83;;;4.30;1.00;;;;;;7363259;19;20014;-77
2023/02/10 12:11:31;;;;;;;39.15;19.63;;;4.40;1.00;;;;;;7364732;19;20010;-76
2023/02/10 12:14:17;;;;;;;35.28;20.02;;;4.50;1.00;;;;;;7362715;19;20030;-77
2023/02/10 12:16:54;;;;;;;31.63;19.23;;;4.50;1.00;;;;;;7364172;19;20018;-76
2023/02/10 12:19:34;;;;;;;32.92;18.90;;;4.40;1.00;;;;;;7383402;19;20388;-76
2023/02/10 12:22:08;;;;;;;33.22;18.55;;;4.60;1.00;;;;;;7364135;19;20584;-75
2023/02/10 12:25:06;;;;;;;30.02;18.38;;;4.70;1.00;;;;;;7364352;19;20021;-74
2023/02/10 12:27:49;;;;;;;29.77;16.23;;;4.70;1.00;;;;;;7365571;19;20019;-77
2023/02/10 12:30:35;;;;;;;31.23;17.08;;;4.80;1.00;;;;;;7367421;19;20015;-76
2023/02/10 12:33:22;;;;;;;29.88;16.52;;;4.70;1.00;;;;;;7363214;19;20019;-74
2023/02/10 12:35:58;;;;;;;33.25;16.98;;;4.70;1.00;;;;;;7365164;19;20090;-76
2023/02/10 12:38:44;;;;;;;29.45;16.45;;;4.70;1.00;;;;;;7375879;19;20018;-75
2023/02/10 12:41:22;;;;;;;33.30;17.13;;;4.60;1.00;;;;;;7393283;19;20006;-75
2023/02/10 12:44:08;;;;;;;33.85;17.05;;;4.80;1.00;;;;;;7386274;19;20392;-74
2023/02/10 12:46:48;;;;;;;30.38;16.25;;;4.70;1.00;;;;;;7387217;19;20011;-74
2023/02/10 12:49:32;;;;;;;32.40;15.88;;;4.70;1.00;;;;;;7362851;19;20010;-75
2023/02/10 12:52:07;;;;;;;29.35;16.63;;;4.90;1.00;;;;;;7356245;19;20006;-75
2023/02/10 12:54:45;;;;;;;26.10;15.05;;;4.80;1.00;;;;;;7358950;19;20014;-75
2023/02/10 12:57:22;;;;;;;26.50;15.40;;;4.60;1.00;;;;;;7358206;19;20488;-73
2023/02/10 12:59:57;;;;;;;28.35;16.55;;;4.70;1.00;;;;;;7356713;19;20038;-73
2023/02/10 13:02:39;;;;;;;29.13;15.65;;;4.90;1.00;;;;;;7361904;19;20042;-74
2023/02/10 13:05:13;;;;;;;28.08;15.38;;;5.00;1.00;;;;;;7361840;19;20038;-74
2023/02/10 13:07:50;;;;;;;27.00;15.52;;;5.00;1.00;;;;;;7356744;19;20022;-74
2023/02/10 13:10:30;;;;;;;29.25;15.82;;;4.80;1.00;;;;;;7377769;19;20272;-74
2023/02/10 13:13:05;;;;;;;29.50;15.50;;;4.70;1.00;;;;;;7360977;19;20218;-74
2023/02/10 13:15:41;;;;;;;26.20;14.82;;;4.80;1.00;;;;;;7355117;19;20015;-73